Time;durP1;ratioP1;P1;durP2;ratioP2;P2;SDS_P1;SDS_P2;PMS_P1;PMS_P2;Temp;Humidity;BMP_temperature;BMP_pressure;BME280_temperature;BME280_humidity;BME280_pressure;Samples;Min_cycle;Max_cycle;Signal;HPM_P1;HPM_P2
2022/07/28 00:02:49;;;;;;;2.33;0.43;;;20.80;53.60;;;;;;6223814;28;20042;-77
2022/07/28 00:05:51;;;;;;;0.68;0.30;;;20.80;53.40;;;;;;6223747;28;20061;-78
2022/07/28 00:08:53;;;;;;;4.47;0.60;;;20.90;53.30;;;;;;6223665;28;20050;-78
2022/07/28 00:11:55;;;;;;;1.30;0.38;;;20.80;53.30;;;;;;6223639;28;20065;-77
2022/07/28 00:14:58;;;;;;;5.07;1.15;;;20.80;53.40;;;;;;6223746;28;20046;-77
2022/07/28 00:18:00;;;;;;;0.90;0.50;;;20.80;53.60;;;;;;6222880;28;20369;-77
2022/07/28 00:21:02;;;;;;;0.10;0.10;;;20.70;53.50;;;;;;6223588;28;20052;-77
2022/07/28 00:24:04;;;;;;;2.08;0.52;;;20.70;53.60;;;;;;6223161;28;20419;-77
2022/07/28 00:27:06;;;;;;;2.20;0.55;;;20.60;53.80;;;;;;6223383;28;20061;-77
2022/07/28 00:30:10;;;;;;;1.77;0.52;;;20.60;54.10;;;;;;6223043;28;20059;-77
2022/07/28 00:33:12;;;;;;;4.95;1.48;;;20.50;54.00;;;;;;6222966;28;20423;-77
2022/07/28 00:36:13;;;;;;;1.55;0.35;;;20.50;54.40;;;;;;6223285;28;20045;-78
2022/07/28 00:39:15;;;;;;;2.15;0.35;;;20.60;54.20;;;;;;6223439;28;20045;-78
2022/07/28 00:42:18;;;;;;;0.68;0.30;;;20.70;53.80;;;;;;6201998;28;20053;-77
2022/07/28 00:45:21;;;;;;;4.00;0.50;;;20.70;53.80;;;;;;6197780;28;20050;-78
2022/07/28 00:48:23;;;;;;;1.05;0.40;;;20.60;53.90;;;;;;6195854;28;20049;-77
2022/07/28 00:51:26;;;;;;;6.45;0.73;;;20.50;53.90;;;;;;6199033;28;20046;-77
2022/07/28 00:54:28;;;;;;;1.13;0.32;;;20.60;54.00;;;;;;6198177;28;20050;-78
2022/07/28 00:57:30;;;;;;;3.58;0.75;;;20.50;54.10;;;;;;6197938;28;20432;-77
2022/07/28 01:00:33;;;;;;;2.40;0.43;;;20.40;54.20;;;;;;6198244;28;20046;-77
2022/07/28 01:03:38;;;;;;;2.70;0.57;;;20.40;54.40;;;;;;6198705;28;20077;-77
2022/07/28 01:06:54;;;;;;;2.38;0.40;;;20.30;54.40;;;;;;6197972;28;20051;-79
2022/07/28 01:10:04;;;;;;;2.13;0.30;;;20.30;54.60;;;;;;6197515;28;20076;-77
2022/07/28 01:13:13;;;;;;;6.78;0.60;;;20.40;54.60;;;;;;6198258;28;20049;-77
2022/07/28 01:16:16;;;;;;;1.10;0.28;;;20.40;54.30;;;;;;6198010;28;20071;-78
2022/07/28 01:19:33;;;;;;;4.10;0.60;;;20.40;54.40;;;;;;6197872;28;20401;-78
2022/07/28 01:22:44;;;;;;;4.65;0.60;;;20.40;54.40;;;;;;6198006;28;20050;-78
2022/07/28 01:25:51;;;;;;;3.95;0.45;;;20.30;54.60;;;;;;6197712;28;20046;-78
2022/07/28 01:29:03;;;;;;;1.40;0.30;;;20.40;54.50;;;;;;6197781;28;20046;-78
2022/07/28 01:32:13;;;;;;;3.70;0.40;;;20.30;54.60;;;;;;6197312;28;20488;-77
2022/07/28 01:35:19;;;;;;;0.73;0.38;;;20.20;54.90;;;;;;6198103;28;20054;-77
2022/07/28 01:38:24;;;;;;;4.88;0.55;;;20.10;55.10;;;;;;6197271;28;20077;-77
2022/07/28 01:41:30;;;;;;;2.88;0.50;;;20.00;55.50;;;;;;6197485;28;20051;-78
2022/07/28 01:44:36;;;;;;;1.83;0.45;;;19.90;55.70;;;;;;6197226;28;20492;-78
2022/07/28 01:47:40;;;;;;;0.57;0.20;;;19.90;55.90;;;;;;6198082;28;20050;-78
2022/07/28 01:50:44;;;;;;;2.30;0.32;;;20.00;55.80;;;;;;6197117;28;20050;-78
2022/07/28 01:53:47;;;;;;;1.58;0.35;;;20.00;55.70;;;;;;6197341;28;20500;-78
2022/07/28 01:56:51;;;;;;;2.72;0.60;;;20.00;56.30;;;;;;6197260;28;20042;-77
2022/07/28 01:59:54;;;;;;;1.42;0.93;;;20.00;55.70;;;;;;6197291;28;20042;-78
2022/07/28 02:03:00;;;;;;;0.95;0.55;;;20.10;55.80;;;;;;6197644;28;20046;-77
2022/07/28 02:06:05;;;;;;;1.38;0.40;;;20.10;55.60;;;;;;6196938;28;20057;-78
2022/07/28 02:09:08;;;;;;;4.78;0.50;;;20.00;55.60;;;;;;6196958;28;20050;-77
2022/07/28 02:12:13;;;;;;;1.23;0.50;;;20.00;55.80;;;;;;6196985;28;20412;-77
2022/07/28 02:15:15;;;;;;;2.65;0.38;;;19.90;56.10;;;;;;6197312;28;20061;-77
2022/07/28 02:18:19;;;;;;;1.48;0.38;;;19.80;56.40;;;;;;6196712;28;20043;-79
2022/07/28 02:21:22;;;;;;;0.47;0.30;;;19.70;56.50;;;;;;6196939;28;20043;-77
2022/07/28 02:24:26;;;;;;;2.42;0.70;;;19.50;56.90;;;;;;6197057;28;20170;-78
2022/07/28 02:27:34;;;;;;;1.70;0.40;;;19.40;57.30;;;;;;6196976;28;20498;-77
2022/07/28 02:30:43;;;;;;;2.25;0.70;;;19.40;57.60;;;;;;6196737;28;20520;-78
2022/07/28 02:33:47;;;;;;;0.45;0.17;;;19.30;58.40;;;;;;6197082;28;20069;-77
2022/07/28 02:36:54;;;;;;;2.50;0.40;;;19.30;58.00;;;;;;6196820;28;20065;-77
2022/07/28 02:39:58;;;;;;;2.17;0.35;;;19.30;58.10;;;;;;6197005;28;20057;-77
2022/07/28 02:43:02;;;;;;;2.92;0.75;;;19.30;58.40;;;;;;6197600;28;20496;-79
2022/07/28 02:46:10;;;;;;;6.57;0.47;;;19.20;58.50;;;;;;6196939;28;20050;-77
2022/07/28 02:49:17;;;;;;;5.43;0.30;;;19.20;58.80;;;;;;6196837;28;20046;-77
2022/07/28 02:52:23;;;;;;;1.58;0.40;;;19.10;59.00;;;;;;6196830;28;20042;-77
2022/07/28 02:55:25;;;;;;;5.95;0.70;;;19.00;59.30;;;;;;6197608;28;20050;-78
2022/07/28 02:58:28;;;;;;;1.73;0.68;;;19.00;59.60;;;;;;6196356;28;20050;-78
2022/07/28 03:01:31;;;;;;;2.47;0.40;;;18.90;59.80;;;;;;6196686;28;20622;-77
2022/07/28 03:07:57;;;;;;;4.18;0.57;;;18.90;60.10;;;;;;6196517;28;20090;-77
2022/07/28 03:11:07;;;;;;;1.75;0.60;;;18.90;60.30;;;;;;6201537;28;20052;-77
2022/07/28 03:14:09;;;;;;;1.33;0.40;;;18.90;60.20;;;;;;6187963;28;20042;-80
2022/07/28 03:17:10;;;;;;;3.58;0.80;;;18.90;60.40;;;;;;6203468;28;20054;-80
2022/07/28 03:20:14;;;;;;;0.40;0.40;;;18.90;60.70;;;;;;6204439;28;20046;-80
2022/07/28 03:23:16;;;;;;;3.22;0.50;;;18.80;60.80;;;;;;6205945;28;20061;-81
2022/07/28 03:26:25;;;;;;;1.75;0.32;;;18.70;61.00;;;;;;6205049;28;20046;-79
2022/07/28 03:29:28;;;;;;;6.53;0.50;;;18.80;61.20;;;;;;6204932;28;20050;-81
2022/07/28 03:32:32;;;;;;;1.17;0.40;;;18.70;61.50;;;;;;6204460;28;20483;-81
2022/07/28 03:35:42;;;;;;;1.52;0.40;;;18.70;61.80;;;;;;6205598;28;20066;-78
2022/07/28 03:38:48;;;;;;;2.03;0.68;;;18.70;61.90;;;;;;6208327;28;20072;-80
2022/07/28 03:41:52;;;;;;;1.77;0.40;;;18.60;62.00;;;;;;6206974;28;20241;-80
2022/07/28 03:44:54;;;;;;;3.33;0.40;;;18.60;62.40;;;;;;6206304;28;20052;-80
2022/07/28 03:47:58;;;;;;;3.08;0.70;;;18.50;62.70;;;;;;6205473;28;20500;-80
2022/07/28 03:51:01;;;;;;;7.78;0.68;;;18.40;63.00;;;;;;6206042;28;20170;-80
2022/07/28 03:54:03;;;;;;;3.90;0.45;;;18.40;63.00;;;;;;6205567;28;20050;-79
2022/07/28 03:57:05;;;;;;;3.30;0.85;;;18.40;63.10;;;;;;6206428;28;20050;-78
2022/07/28 04:00:08;;;;;;;2.42;0.90;;;18.40;63.30;;;;;;6206142;28;20073;-80
2022/07/28 04:03:10;;;;;;;3.30;0.95;;;18.40;63.40;;;;;;6206640;28;20061;-80
2022/07/28 04:06:13;;;;;;;2.58;1.17;;;18.50;63.40;;;;;;6206813;28;20042;-78
2022/07/28 04:09:15;;;;;;;6.70;1.25;;;18.50;63.20;;;;;;6205099;28;20047;-80
2022/07/28 04:12:17;;;;;;;6.65;0.60;;;18.40;63.40;;;;;;6204909;28;20049;-79
2022/07/28 04:15:19;;;;;;;0.93;0.60;;;18.50;63.50;;;;;;6206059;28;20054;-79
2022/07/28 04:18:21;;;;;;;10.13;0.95;;;18.50;63.50;;;;;;6207196;28;20049;-78
2022/07/28 04:21:24;;;;;;;1.27;0.43;;;18.50;63.80;;;;;;6206519;28;20056;-79
2022/07/28 04:24:26;;;;;;;1.35;0.40;;;18.50;63.50;;;;;;6205539;28;20070;-79
2022/07/28 04:27:28;;;;;;;5.32;1.10;;;18.50;63.30;;;;;;6205021;28;20050;-79
2022/07/28 04:30:30;;;;;;;5.00;1.67;;;18.60;63.30;;;;;;6205642;28;20053;-82
2022/07/28 04:33:31;;;;;;;1.50;0.47;;;18.60;63.10;;;;;;6204540;28;20418;-79
2022/07/28 04:36:40;;;;;;;3.45;0.70;;;18.60;63.40;;;;;;6207326;28;20050;-77
2022/07/28 04:39:42;;;;;;;1.55;0.45;;;18.60;63.50;;;;;;6205944;28;20140;-80
2022/07/28 04:42:44;;;;;;;2.85;0.68;;;18.60;63.40;;;;;;6204242;28;20042;-79
2022/07/28 04:45:46;;;;;;;0.60;0.40;;;18.70;63.20;;;;;;6203948;28;20042;-80
2022/07/28 04:48:48;;;;;;;1.88;0.50;;;18.90;63.10;;;;;;6203859;28;20047;-79
2022/07/28 04:51:51;;;;;;;2.83;0.50;;;19.10;62.50;;;;;;6205011;28;20054;-79
2022/07/28 04:54:53;;;;;;;6.03;0.70;;;19.30;61.90;;;;;;6204761;28;20054;-80
2022/07/28 04:57:55;;;;;;;1.55;0.50;;;19.60;61.50;;;;;;6204043;28;20056;-79
2022/07/28 05:00:57;;;;;;;5.18;0.90;;;19.70;60.70;;;;;;6203463;28;20512;-81
2022/07/28 05:03:58;;;;;;;4.15;0.93;;;19.80;60.60;;;;;;6203454;28;20058;-80
2022/07/28 05:07:01;;;;;;;6.88;0.50;;;19.80;60.60;;;;;;6204439;28;20057;-79
2022/07/28 05:10:04;;;;;;;4.60;0.60;;;19.80;60.60;;;;;;6203635;28;20059;-79
2022/07/28 05:13:06;;;;;;;2.42;0.38;;;20.00;60.20;;;;;;6203275;28;20050;-78
2022/07/28 05:16:08;;;;;;;0.88;0.30;;;20.10;60.00;;;;;;6204254;28;20050;-77
2022/07/28 05:19:10;;;;;;;4.22;1.20;;;20.30;59.50;;;;;;6204008;28;20050;-78
2022/07/28 05:22:13;;;;;;;4.65;0.43;;;20.40;59.00;;;;;;6203200;28;20053;-82
2022/07/28 05:25:17;;;;;;;4.57;0.75;;;20.80;58.30;;;;;;6202869;28;20049;-77
2022/07/28 05:28:18;;;;;;;4.28;0.60;;;21.30;57.10;;;;;;6202721;28;20049;-77
2022/07/28 05:31:20;;;;;;;3.42;0.50;;;22.00;55.20;;;;;;6201549;28;20824;-78
2022/07/28 05:34:22;;;;;;;2.58;0.43;;;22.80;53.70;;;;;;6196212;28;20045;-78
2022/07/28 05:37:25;;;;;;;2.28;0.55;;;23.70;51.40;;;;;;6200226;28;20061;-80
2022/07/28 05:40:28;;;;;;;1.65;0.60;;;24.70;49.20;;;;;;6203839;28;20048;-78
2022/07/28 05:43:30;;;;;;;3.42;0.98;;;25.80;47.00;;;;;;6223768;28;20046;-77
2022/07/28 05:46:32;;;;;;;6.43;0.63;;;26.60;45.00;;;;;;6223461;28;20050;-78
2022/07/28 05:49:34;;;;;;;3.03;0.50;;;27.20;44.00;;;;;;6224073;28;20553;-77
2022/07/28 05:52:37;;;;;;;4.03;0.70;;;27.30;43.20;;;;;;6224877;28;20041;-76
2022/07/28 05:55:39;;;;;;;1.30;0.40;;;27.30;43.50;;;;;;6224749;28;20160;-78
2022/07/28 05:58:40;;;;;;;2.42;0.57;;;27.00;43.40;;;;;;6225246;28;20048;-78
2022/07/28 06:01:42;;;;;;;4.05;0.45;;;26.50;44.50;;;;;;6225166;28;20416;-77
2022/07/28 06:04:44;;;;;;;2.47;0.30;;;26.20;45.40;;;;;;6224831;28;20045;-78
2022/07/28 06:07:48;;;;;;;1.67;0.50;;;25.90;45.10;;;;;;6208373;28;20141;-77
2022/07/28 06:11:00;;;;;;;1.98;0.45;;;25.00;45.90;;;;;;6200629;28;20055;-78
2022/07/28 06:14:02;;;;;;;2.75;0.65;;;24.30;47.40;;;;;;6200453;28;20051;-77
2022/07/28 06:17:04;;;;;;;5.55;0.60;;;23.50;49.00;;;;;;6200039;28;20042;-78
2022/07/28 06:20:07;;;;;;;4.03;0.30;;;23.10;50.20;;;;;;6199361;28;20419;-76
2022/07/28 06:23:10;;;;;;;3.75;0.73;;;23.00;50.70;;;;;;6201178;28;20050;-76
2022/07/28 06:26:11;;;;;;;4.35;0.80;;;23.00;51.10;;;;;;6199666;28;20149;-80
2022/07/28 06:29:13;;;;;;;3.72;0.63;;;22.90;51.20;;;;;;6200199;28;20428;-78
2022/07/28 06:32:15;;;;;;;3.50;0.40;;;23.10;51.40;;;;;;6201192;28;20046;-77
2022/07/28 06:35:18;;;;;;;5.65;0.68;;;23.20;51.10;;;;;;6205924;28;20080;-76
2022/07/28 06:38:21;;;;;;;7.45;0.70;;;23.20;50.90;;;;;;6216573;28;20530;-76
2022/07/28 06:41:23;;;;;;;3.33;0.40;;;23.10;51.00;;;;;;6225274;28;20407;-78
2022/07/28 06:44:24;;;;;;;3.10;0.43;;;23.00;51.20;;;;;;6227145;28;20053;-78
2022/07/28 06:47:27;;;;;;;4.18;0.88;;;23.00;51.00;;;;;;6231232;28;20050;-79
2022/07/28 06:50:28;;;;;;;4.15;2.08;;;23.10;51.20;;;;;;6232485;28;20423;-78
2022/07/28 06:53:31;;;;;;;5.53;0.57;;;23.20;51.40;;;;;;6231225;28;20042;-79
2022/07/28 06:56:33;;;;;;;2.00;0.63;;;23.40;50.70;;;;;;6231678;28;20072;-79
2022/07/28 06:59:35;;;;;;;1.27;0.70;;;23.90;50.20;;;;;;6231961;28;20045;-78
2022/07/28 07:02:38;;;;;;;6.13;2.95;;;24.20;49.20;;;;;;6232190;28;20046;-79
2022/07/28 07:05:39;;;;;;;1.70;0.40;;;24.40;49.30;;;;;;6224800;28;20049;-78
2022/07/28 07:08:42;;;;;;;2.28;0.77;;;24.50;48.90;;;;;;6223417;28;20053;-79
2022/07/28 07:11:44;;;;;;;2.53;0.60;;;24.40;48.70;;;;;;6231857;28;20054;-78
2022/07/28 07:14:46;;;;;;;3.20;0.77;;;24.10;49.30;;;;;;6230998;28;20054;-79
2022/07/28 07:17:48;;;;;;;4.68;0.80;;;23.60;50.20;;;;;;6231230;28;20169;-78
2022/07/28 07:20:50;;;;;;;2.40;0.60;;;23.40;51.10;;;;;;6230299;28;20046;-78
2022/07/28 07:23:53;;;;;;;4.72;0.85;;;23.40;51.40;;;;;;6231926;28;20053;-79
2022/07/28 07:26:55;;;;;;;2.72;0.98;;;23.60;51.20;;;;;;6231051;28;20571;-78
2022/07/28 07:29:56;;;;;;;6.57;1.08;;;23.90;50.70;;;;;;6230921;28;20050;-78
2022/07/28 07:32:58;;;;;;;1.13;0.60;;;24.20;51.10;;;;;;6219469;28;20042;-79
2022/07/28 07:36:00;;;;;;;1.95;0.60;;;24.30;49.80;;;;;;6208100;28;20503;-79
2022/07/28 07:39:03;;;;;;;6.35;1.08;;;24.10;50.20;;;;;;6225388;28;20060;-78
2022/07/28 07:42:05;;;;;;;2.33;0.70;;;24.10;50.50;;;;;;6230324;28;20038;-79
2022/07/28 07:45:07;;;;;;;4.68;0.90;;;24.10;50.70;;;;;;6230189;28;20046;-78
2022/07/28 07:48:09;;;;;;;3.22;0.93;;;24.10;51.00;;;;;;6230139;28;20060;-77
2022/07/28 07:51:11;;;;;;;3.80;0.90;;;24.10;51.00;;;;;;6231585;28;20046;-79
2022/07/28 07:54:14;;;;;;;3.45;1.17;;;24.40;51.10;;;;;;6230860;28;20397;-78
2022/07/28 07:57:16;;;;;;;4.57;1.00;;;24.80;51.40;;;;;;6230499;28;20041;-78
2022/07/28 08:00:18;;;;;;;3.75;0.68;;;25.30;49.30;;;;;;6230343;28;20049;-78
2022/07/28 08:03:20;;;;;;;2.90;0.88;;;25.70;48.80;;;;;;6230543;28;20654;-80
2022/07/28 08:06:22;;;;;;;4.15;0.65;;;25.80;48.40;;;;;;6217797;28;20440;-80
2022/07/28 08:09:25;;;;;;;2.58;0.70;;;25.60;49.60;;;;;;6223564;28;20050;-80
2022/07/28 08:12:27;;;;;;;7.13;0.95;;;25.70;48.90;;;;;;6225229;28;20496;-77
2022/07/28 08:15:29;;;;;;;3.10;0.63;;;25.80;48.90;;;;;;6226850;28;20135;-80
2022/07/28 08:18:31;;;;;;;3.58;0.68;;;26.00;48.70;;;;;;6226604;28;20056;-79
2022/07/28 08:21:33;;;;;;;5.45;1.02;;;26.10;48.30;;;;;;6226578;28;20117;-80
2022/07/28 08:24:36;;;;;;;5.97;1.15;;;26.10;48.60;;;;;;6227885;28;20054;-79
2022/07/28 08:27:38;;;;;;;1.55;0.75;;;26.00;48.30;;;;;;6227107;28;20054;-80
2022/07/28 08:30:39;;;;;;;4.00;1.20;;;26.00;48.80;;;;;;6225403;28;20060;-80
2022/07/28 08:33:41;;;;;;;3.90;1.08;;;26.20;48.80;;;;;;6225709;28;20041;-79
2022/07/28 08:36:43;;;;;;;6.40;1.33;;;26.20;48.80;;;;;;6211241;28;20046;-77
2022/07/28 08:39:46;;;;;;;2.78;1.33;;;26.40;48.70;;;;;;6226462;28;20065;-80
2022/07/28 08:42:50;;;;;;;10.13;1.00;;;26.90;47.90;;;;;;6226132;28;20049;-79
2022/07/28 08:45:52;;;;;;;2.55;0.80;;;27.00;47.80;;;;;;6225684;28;20049;-80
2022/07/28 08:48:55;;;;;;;11.73;0.98;;;27.40;47.20;;;;;;6226246;28;20045;-80
2022/07/28 08:51:59;;;;;;;2.35;0.80;;;27.50;46.90;;;;;;6228768;28;20057;-78
2022/07/28 08:55:05;;;;;;;4.63;1.35;;;27.60;46.90;;;;;;6229189;28;20426;-78
2022/07/28 08:58:07;;;;;;;2.60;0.95;;;27.70;46.60;;;;;;6228547;28;20081;-79
2022/07/28 09:01:09;;;;;;;7.82;1.25;;;27.60;46.50;;;;;;6228676;28;20407;-78
2022/07/28 09:04:12;;;;;;;4.78;0.50;;;27.30;47.10;;;;;;6226310;28;20049;-78
2022/07/28 09:07:16;;;;;;;2.28;0.80;;;26.90;48.20;;;;;;6212766;28;20057;-78
2022/07/28 09:10:19;;;;;;;5.07;1.10;;;27.10;48.00;;;;;;6226866;28;20049;-77
2022/07/28 09:13:22;;;;;;;6.43;1.52;;;27.60;47.20;;;;;;6226952;28;20423;-77
2022/07/28 09:16:23;;;;;;;6.75;1.10;;;27.90;46.70;;;;;;6223525;28;20395;-76
2022/07/28 09:19:25;;;;;;;5.53;0.98;;;28.00;46.40;;;;;;6222473;28;20523;-77
2022/07/28 09:22:27;;;;;;;2.95;1.08;;;28.10;46.90;;;;;;6221684;28;20065;-77
2022/07/28 09:25:31;;;;;;;4.70;1.00;;;28.40;46.30;;;;;;6222054;28;20057;-77
2022/07/28 09:28:45;;;;;;;2.92;0.95;;;28.70;45.80;;;;;;6217043;28;20047;-79
2022/07/28 09:31:51;;;;;;;3.78;1.58;;;29.00;45.60;;;;;;6198361;28;20057;-76
2022/07/28 09:34:53;;;;;;;4.10;1.15;;;29.00;45.10;;;;;;6197940;28;20049;-76
2022/07/28 09:37:59;;;;;;;4.45;1.42;;;28.80;45.60;;;;;;6203690;28;20050;-77
2022/07/28 09:41:06;;;;;;;5.47;1.30;;;28.70;46.00;;;;;;6173894;28;20039;-78
2022/07/28 09:44:18;;;;;;;5.13;1.20;;;28.70;46.10;;;;;;6173891;28;20043;-77
2022/07/28 09:47:25;;;;;;;3.00;1.10;;;28.90;45.60;;;;;;6174083;28;20050;-78
2022/07/28 09:50:29;;;;;;;4.13;1.10;;;29.00;45.80;;;;;;6173300;28;20046;-79
2022/07/28 09:53:30;;;;;;;3.10;1.40;;;29.10;45.60;;;;;;6173375;28;20047;-79
2022/07/28 09:56:33;;;;;;;3.50;1.40;;;29.20;45.30;;;;;;6173382;28;20039;-78
2022/07/28 09:59:42;;;;;;;4.53;1.13;;;29.30;45.40;;;;;;6174333;28;20057;-78
2022/07/28 10:02:49;;;;;;;6.93;1.10;;;29.50;45.50;;;;;;6173759;28;20054;-78
2022/07/28 10:05:51;;;;;;;4.03;1.10;;;29.80;44.50;;;;;;6197410;28;20057;-77
2022/07/28 10:08:55;;;;;;;2.55;1.05;;;29.80;44.80;;;;;;6215264;28;20046;-78
2022/07/28 10:12:18;;;;;;;3.60;1.35;;;30.20;44.40;;;;;;6222714;28;20056;-77
2022/07/28 10:18:40;;;;;;;4.13;1.33;;;30.60;43.60;;;;;;6225314;28;20038;-78
2022/07/28 10:21:43;;;;;;;8.77;1.80;;;30.60;43.90;;;;;;6226572;28;20046;-78
2022/07/28 10:24:48;;;;;;;2.17;1.20;;;30.50;44.00;;;;;;6228116;28;20144;-78
2022/07/28 10:27:53;;;;;;;9.45;1.73;;;30.10;44.30;;;;;;6212503;28;20049;-78
2022/07/28 10:30:59;;;;;;;6.30;1.55;;;29.70;44.90;;;;;;6178767;28;20125;-78
2022/07/28 10:34:03;;;;;;;6.97;1.45;;;29.50;46.10;;;;;;6179318;28;20137;-77
2022/07/28 10:37:07;;;;;;;7.40;1.67;;;29.50;45.40;;;;;;6213721;28;20052;-77
2022/07/28 10:40:11;;;;;;;12.55;1.38;;;29.50;45.70;;;;;;6227386;28;20050;-77
2022/07/28 10:43:15;;;;;;;3.03;1.10;;;29.60;45.70;;;;;;6227635;28;20053;-78
2022/07/28 10:46:17;;;;;;;4.28;1.55;;;29.70;45.30;;;;;;6225829;28;20061;-78
2022/07/28 10:49:19;;;;;;;2.45;1.63;;;29.80;45.20;;;;;;6212385;28;20050;-78
2022/07/28 10:52:22;;;;;;;2.22;1.23;;;29.80;45.40;;;;;;6201440;28;20038;-79
2022/07/28 10:55:44;;;;;;;5.30;1.48;;;29.80;45.40;;;;;;6202621;28;20496;-78
2022/07/28 10:58:53;;;;;;;4.57;1.60;;;30.10;45.10;;;;;;6198227;28;20050;-77
2022/07/28 11:01:54;;;;;;;6.72;1.20;;;30.40;44.80;;;;;;6176868;28;20066;-79
2022/07/28 11:05:00;;;;;;;6.43;1.30;;;30.90;44.10;;;;;;6187435;28;20057;-77
2022/07/28 11:08:05;;;;;;;4.55;1.58;;;30.90;44.10;;;;;;6218547;28;20077;-77
2022/07/28 11:11:08;;;;;;;4.40;1.30;;;31.40;43.30;;;;;;6226121;28;20050;-78
2022/07/28 11:14:32;;;;;;;4.95;1.05;;;31.80;42.80;;;;;;6225145;28;20046;-78
2022/07/28 11:17:34;;;;;;;3.72;1.23;;;32.00;42.20;;;;;;6213948;28;20129;-78
2022/07/28 11:21:08;;;;;;;6.68;1.73;;;32.00;42.60;;;;;;6201961;28;20058;-79
2022/07/28 11:24:09;;;;;;;3.58;1.23;;;32.20;42.30;;;;;;6200814;28;20053;-78
2022/07/28 11:27:11;;;;;;;8.02;1.67;;;32.60;41.70;;;;;;6201096;28;20053;-78
2022/07/28 11:30:53;;;;;;;4.10;1.35;;;32.80;41.50;;;;;;6199804;28;20457;-77
2022/07/28 11:33:56;;;;;;;5.32;2.17;;;32.80;41.00;;;;;;6200307;28;20398;-78
2022/07/28 11:37:02;;;;;;;3.30;1.45;;;32.90;41.00;;;;;;6210005;28;20045;-77
2022/07/28 11:40:32;;;;;;;4.95;1.75;;;33.00;40.70;;;;;;6204299;28;20078;-79
2022/07/28 11:43:34;;;;;;;3.17;1.33;;;33.00;40.60;;;;;;6200475;28;20053;-77
2022/07/28 11:46:38;;;;;;;6.97;1.50;;;33.00;40.30;;;;;;6199738;28;20065;-78
2022/07/28 11:49:40;;;;;;;5.68;1.40;;;32.70;41.10;;;;;;6199482;28;20711;-77
2022/07/28 11:52:52;;;;;;;6.47;1.52;;;32.50;41.30;;;;;;6199496;28;20046;-78
2022/07/28 11:55:55;;;;;;;2.58;1.35;;;32.10;41.50;;;;;;6199982;28;20055;-77
2022/07/28 11:58:59;;;;;;;3.45;1.27;;;32.10;41.70;;;;;;6200601;28;20054;-78
2022/07/28 12:02:02;;;;;;;4.22;1.50;;;32.30;41.40;;;;;;6191468;28;20039;-77
2022/07/28 12:05:08;;;;;;;3.85;1.55;;;32.70;41.10;;;;;;6187328;28;20050;-77
2022/07/28 12:08:09;;;;;;;3.65;1.35;;;32.80;41.00;;;;;;6216141;28;20057;-79
2022/07/28 12:11:11;;;;;;;8.35;1.50;;;33.30;40.50;;;;;;6224795;28;20550;-77
2022/07/28 12:14:14;;;;;;;5.13;1.58;;;33.70;40.00;;;;;;6223721;28;20076;-77
2022/07/28 12:17:17;;;;;;;2.50;1.27;;;34.30;39.40;;;;;;6223547;28;20430;-77
2022/07/28 12:20:20;;;;;;;3.88;1.50;;;34.40;38.80;;;;;;6223663;28;20503;-77
2022/07/28 12:23:30;;;;;;;3.80;1.70;;;34.40;38.80;;;;;;6224132;28;20053;-77
2022/07/28 12:26:33;;;;;;;3.75;1.23;;;33.90;39.20;;;;;;6223162;28;20042;-77
2022/07/28 12:29:35;;;;;;;4.07;1.20;;;33.50;39.20;;;;;;6223265;28;20050;-77
2022/07/28 12:32:38;;;;;;;3.72;1.30;;;33.40;39.70;;;;;;6224169;28;20046;-78
2022/07/28 12:35:41;;;;;;;2.00;1.15;;;33.60;39.60;;;;;;6219346;28;20053;-78
2022/07/28 12:38:42;;;;;;;4.30;1.20;;;34.20;39.00;;;;;;6208653;28;20050;-78
2022/07/28 12:41:44;;;;;;;3.58;1.50;;;34.40;38.50;;;;;;6199482;28;20057;-77
2022/07/28 12:44:47;;;;;;;6.00;1.50;;;34.10;38.60;;;;;;6200596;28;20046;-78
2022/07/28 12:47:50;;;;;;;7.32;4.00;;;33.90;38.70;;;;;;6201402;28;20046;-78
2022/07/28 12:50:52;;;;;;;5.97;1.45;;;34.10;38.20;;;;;;6200370;28;20053;-77
2022/07/28 12:53:54;;;;;;;3.67;1.35;;;34.00;38.50;;;;;;6199358;28;20049;-77
2022/07/28 12:56:56;;;;;;;4.72;1.63;;;33.70;38.70;;;;;;6200320;28;20492;-78
2022/07/28 13:00:05;;;;;;;3.72;1.65;;;33.60;38.90;;;;;;6201285;28;20062;-78
2022/07/28 13:03:23;;;;;;;2.55;1.52;;;33.30;39.10;;;;;;6186240;28;20051;-78
2022/07/28 13:06:25;;;;;;;5.75;1.08;;;33.20;39.20;;;;;;6204751;28;20046;-78
2022/07/28 13:09:26;;;;;;;3.67;1.17;;;33.10;39.20;;;;;;6223056;28;20050;-78
2022/07/28 13:12:29;;;;;;;1.23;1.00;;;33.20;39.20;;;;;;6224184;28;20038;-77
2022/07/28 13:15:31;;;;;;;2.90;1.25;;;33.20;38.90;;;;;;6225556;28;20064;-78
2022/07/28 13:18:45;;;;;;;13.80;1.95;;;33.30;38.80;;;;;;6223937;28;20058;-78
2022/07/28 13:21:50;;;;;;;2.38;1.25;;;33.20;39.00;;;;;;6223723;28;20058;-78
2022/07/28 13:24:51;;;;;;;2.47;1.23;;;33.50;38.70;;;;;;6196911;28;20039;-78
2022/07/28 13:27:53;;;;;;;4.10;1.45;;;33.50;39.20;;;;;;6200259;28;20050;-78
2022/07/28 13:30:55;;;;;;;3.75;1.50;;;33.50;38.40;;;;;;6199507;28;20433;-78
2022/07/28 13:33:58;;;;;;;3.67;0.90;;;33.60;38.60;;;;;;6202560;28;20514;-78
2022/07/28 13:37:00;;;;;;;3.65;1.30;;;33.80;38.20;;;;;;6208946;28;20046;-79
2022/07/28 13:40:02;;;;;;;3.63;1.33;;;34.10;38.10;;;;;;6225349;28;20196;-79
2022/07/28 13:43:03;;;;;;;4.10;1.58;;;34.20;37.90;;;;;;6214558;28;20046;-78
2022/07/28 13:46:05;;;;;;;2.45;1.20;;;34.20;37.40;;;;;;6196594;28;20043;-78
2022/07/28 13:49:08;;;;;;;3.88;1.30;;;34.00;37.80;;;;;;6200960;28;20050;-78
2022/07/28 13:52:10;;;;;;;2.95;1.10;;;33.80;37.60;;;;;;6201484;28;20053;-77
2022/07/28 13:55:12;;;;;;;4.28;1.80;;;33.40;38.00;;;;;;6201403;28;20054;-78
2022/07/28 13:58:14;;;;;;;2.63;1.48;;;33.30;38.50;;;;;;6201250;28;20052;-79
2022/07/28 14:01:15;;;;;;;2.60;1.20;;;33.40;38.10;;;;;;6200831;28;20050;-78
2022/07/28 14:04:18;;;;;;;3.13;1.40;;;33.30;38.30;;;;;;6196447;28;20050;-78
2022/07/28 14:07:20;;;;;;;4.25;1.45;;;33.20;38.50;;;;;;6214275;28;20054;-79
2022/07/28 14:10:22;;;;;;;2.38;1.10;;;33.20;38.50;;;;;;6225395;28;20053;-78
2022/07/28 14:13:24;;;;;;;5.35;1.23;;;33.10;38.50;;;;;;6225048;28;20042;-79
2022/07/28 14:16:26;;;;;;;1.92;1.20;;;33.10;38.70;;;;;;6225043;28;20045;-78
2022/07/28 14:19:29;;;;;;;3.58;1.52;;;33.20;38.30;;;;;;6223951;28;20054;-78
2022/07/28 14:22:30;;;;;;;3.10;1.50;;;32.90;38.20;;;;;;6224544;28;20185;-78
2022/07/28 14:25:33;;;;;;;3.78;1.20;;;32.60;38.50;;;;;;6223901;28;20052;-78
2022/07/28 14:28:35;;;;;;;4.03;1.10;;;32.30;38.90;;;;;;6223553;28;20057;-78
2022/07/28 14:31:37;;;;;;;2.05;1.17;;;32.30;39.10;;;;;;6224458;28;20056;-78
2022/07/28 14:34:40;;;;;;;2.97;1.48;;;32.40;39.10;;;;;;6219138;28;20488;-77
2022/07/28 14:37:41;;;;;;;5.65;1.45;;;32.60;39.10;;;;;;6209720;28;20129;-79
2022/07/28 14:40:43;;;;;;;3.08;1.13;;;32.70;38.90;;;;;;6202665;28;20053;-79
2022/07/28 14:43:45;;;;;;;1.95;0.77;;;32.90;38.70;;;;;;6202113;28;20050;-79
2022/07/28 14:46:47;;;;;;;1.38;1.08;;;33.10;38.60;;;;;;6201336;28;20050;-78
2022/07/28 14:49:50;;;;;;;4.60;1.05;;;33.20;38.00;;;;;;6201449;28;20046;-79
2022/07/28 14:52:52;;;;;;;3.17;1.08;;;33.40;37.80;;;;;;6202934;28;20042;-78
2022/07/28 14:55:54;;;;;;;4.93;1.35;;;33.40;37.70;;;;;;6204361;28;20054;-78
2022/07/28 14:58:55;;;;;;;2.88;1.42;;;33.40;37.40;;;;;;6203704;28;20052;-77
2022/07/28 15:01:57;;;;;;;2.58;1.25;;;33.40;37.80;;;;;;6203985;28;20052;-78
2022/07/28 15:05:00;;;;;;;3.40;0.90;;;33.70;37.60;;;;;;6206029;28;20516;-79
2022/07/28 15:08:02;;;;;;;1.70;1.13;;;33.80;37.10;;;;;;6223078;28;20049;-79
2022/07/28 15:11:03;;;;;;;7.35;1.00;;;33.70;37.10;;;;;;6232388;28;20057;-79
2022/07/28 15:17:08;;;;;;;3.67;0.88;;;33.80;36.70;;;;;;6236681;28;20045;-80
2022/07/28 15:20:12;;;;;;;4.85;1.48;;;33.80;36.90;;;;;;6238522;28;20045;-81
2022/07/28 15:23:13;;;;;;;4.65;1.50;;;34.00;36.90;;;;;;6237698;28;20054;-81
2022/07/28 15:26:15;;;;;;;3.53;1.15;;;33.80;36.60;;;;;;6240626;28;20060;-82
2022/07/28 15:29:18;;;;;;;3.92;1.30;;;33.60;37.10;;;;;;6242594;28;20042;-80
2022/07/28 15:32:20;;;;;;;4.70;1.15;;;33.60;37.10;;;;;;6240474;28;20132;-80
2022/07/28 15:35:23;;;;;;;2.20;0.90;;;33.70;36.80;;;;;;6249659;28;20046;-80
2022/07/28 15:38:25;;;;;;;2.28;0.80;;;33.60;37.00;;;;;;6240454;28;20046;-80
2022/07/28 15:41:27;;;;;;;1.77;0.93;;;33.50;37.20;;;;;;6241229;28;20045;-81
2022/07/28 15:44:29;;;;;;;1.55;1.10;;;33.30;37.40;;;;;;6239554;28;20060;-80
2022/07/28 15:47:31;;;;;;;1.58;1.23;;;33.20;37.30;;;;;;6242910;28;20080;-81
2022/07/28 15:50:34;;;;;;;2.35;1.02;;;33.10;37.20;;;;;;6241260;28;20169;-80
2022/07/28 15:53:36;;;;;;;8.13;1.30;;;33.00;37.40;;;;;;6242520;28;20129;-80
2022/07/28 15:56:38;;;;;;;2.75;1.17;;;32.90;37.60;;;;;;6238404;28;20049;-79
2022/07/28 15:59:40;;;;;;;3.20;1.17;;;32.60;37.70;;;;;;6240044;28;20053;-80
2022/07/28 16:02:42;;;;;;;5.00;1.30;;;32.60;37.80;;;;;;6238966;28;20053;-80
2022/07/28 16:05:48;;;;;;;4.45;0.95;;;32.50;38.30;;;;;;6227962;28;20129;-81